createdAt,value
2018-12-12T00:00:01.892Z,0
2018-12-12T00:01:01.877Z,0
2018-12-12T00:02:02.343Z,0
2018-12-12T00:03:02.071Z,0
2018-12-12T00:04:02.401Z,0
2018-12-12T00:05:02.291Z,0
2018-12-12T00:06:02.624Z,0
2018-12-12T00:07:01.721Z,0
2018-12-12T00:08:01.951Z,0
2018-12-12T00:09:02.197Z,0
2018-12-12T00:10:01.466Z,0
2018-12-12T00:11:01.410Z,0
2018-12-12T00:12:01.364Z,0
2018-12-12T00:13:01.845Z,0
2018-12-12T00:14:01.580Z,0
2018-12-12T00:15:02.059Z,0
2018-12-12T00:16:01.551Z,0
2018-12-12T00:17:01.511Z,0
2018-12-12T00:18:01.496Z,0
2018-12-12T00:19:01.722Z,0
2018-12-12T00:20:02.071Z,0
2018-12-12T00:21:01.431Z,0
2018-12-12T00:22:01.662Z,0
2018-12-12T00:23:01.734Z,0
2018-12-12T00:24:01.629Z,0
2018-12-12T00:25:01.374Z,0
2018-12-12T00:26:01.583Z,0
2018-12-12T00:27:01.587Z,0
2018-12-12T00:28:01.829Z,0
2018-12-12T00:29:01.614Z,0
2018-12-12T00:30:01.329Z,0
2018-12-12T00:31:01.676Z,0
2018-12-12T00:32:02.003Z,0
2018-12-12T00:33:01.806Z,0
2018-12-12T00:34:01.712Z,0
2018-12-12T00:35:01.389Z,0
2018-12-12T00:36:01.359Z,0
2018-12-12T00:37:01.361Z,0
2018-12-12T00:38:01.062Z,0
2018-12-12T00:39:01.060Z,0
2018-12-12T00:40:01.009Z,0
2018-12-12T00:41:01.006Z,0
2018-12-12T00:42:01.218Z,0
2018-12-12T00:43:01.462Z,0
2018-12-12T00:44:01.443Z,0
2018-12-12T00:45:00.905Z,0
2018-12-12T00:46:01.464Z,0
2018-12-12T00:47:00.358Z,0
2018-12-12T00:48:01.091Z,0
2018-12-12T00:49:01.066Z,0
2018-12-12T00:50:01.006Z,0
2018-12-12T00:51:01.139Z,0
2018-12-12T00:52:01.096Z,0
2018-12-12T00:53:01.166Z,0
2018-12-12T00:54:01.378Z,0
2018-12-12T00:55:01.102Z,0
2018-12-12T00:56:01.141Z,0
2018-12-12T00:57:01.473Z,0
2018-12-12T00:58:00.941Z,0
2018-12-12T00:59:00.349Z,0
2018-12-12T01:00:00.909Z,0
2018-12-12T01:01:00.557Z,0
2018-12-12T01:02:00.553Z,0
2018-12-12T01:03:00.522Z,0
2018-12-12T01:04:00.748Z,0
2018-12-12T01:05:00.477Z,0
2018-12-12T01:06:00.293Z,0
2018-12-12T01:07:00.681Z,0
2018-12-12T01:08:00.148Z,0
2018-12-12T01:09:00.646Z,0
2018-12-12T01:10:00.612Z,0
2018-12-12T01:11:00.599Z,0
2018-12-12T01:12:00.645Z,0
2018-12-12T01:13:00.711Z,0
2018-12-12T01:14:00.159Z,0
2018-12-12T01:15:00.312Z,0
2018-12-12T01:16:00.087Z,0
2018-12-12T01:17:01.064Z,0
2018-12-12T01:17:59.960Z,0
2018-12-12T01:19:00.426Z,0
2018-12-12T01:20:00.415Z,0
2018-12-12T01:21:00.465Z,0
2018-12-12T01:22:00.661Z,0
2018-12-12T01:23:00.076Z,0
2018-12-12T01:24:00.415Z,0
2018-12-12T01:25:00.552Z,0
2018-12-12T01:26:00.010Z,0
2018-12-12T01:27:00.249Z,0
2018-12-12T01:28:00.549Z,0
2018-12-12T01:29:00.464Z,0
2018-12-12T01:30:00.174Z,0
2018-12-12T01:30:59.911Z,0
2018-12-12T01:32:00.394Z,0
2018-12-12T01:32:59.953Z,0
2018-12-12T01:34:00.113Z,0
2018-12-12T01:34:59.871Z,0
2018-12-12T01:36:00.049Z,0
2018-12-12T01:37:00.497Z,0
2018-12-12T01:38:00.327Z,0
2018-12-12T01:39:00.080Z,0
2018-12-12T01:40:00.081Z,0
2018-12-12T01:41:00.086Z,0
2018-12-12T01:42:00.316Z,0
2018-12-12T01:42:59.962Z,0
2018-12-12T01:44:00.183Z,0
2018-12-12T01:45:00.237Z,0
2018-12-12T01:45:59.890Z,0
2018-12-12T01:47:00.079Z,0
2018-12-12T01:48:00.061Z,0
2018-12-12T01:49:00.029Z,0
2018-12-12T01:49:59.597Z,0
2018-12-12T01:50:59.514Z,0
2018-12-12T01:51:59.703Z,0
2018-12-12T01:52:59.255Z,0
2018-12-12T01:53:59.716Z,0
2018-12-12T01:54:59.910Z,0
2018-12-12T01:55:59.631Z,0
2018-12-12T01:56:59.916Z,0
2018-12-12T01:57:59.829Z,0
2018-12-12T01:58:59.869Z,0
2018-12-12T01:59:59.031Z,0
2018-12-12T02:00:59.267Z,0
2018-12-12T02:01:59.256Z,0
2018-12-12T02:02:59.222Z,0
2018-12-12T02:03:59.898Z,0
2018-12-12T02:04:58.915Z,0
2018-12-12T02:05:58.917Z,0
2018-12-12T02:06:59.134Z,0
2018-12-12T02:07:59.119Z,0
2018-12-12T02:08:58.898Z,0
2018-12-12T02:09:58.827Z,0
2018-12-12T02:10:59.036Z,0
2018-12-12T02:11:59.311Z,0
2018-12-12T02:12:59.523Z,0
2018-12-12T02:13:59.234Z,0
2018-12-12T02:14:59.506Z,0
2018-12-12T02:15:59.199Z,0
2018-12-12T02:16:59.494Z,0
2018-12-12T02:17:59.157Z,0
2018-12-12T02:18:58.624Z,0
2018-12-12T02:19:58.604Z,0
2018-12-12T02:20:58.584Z,0
2018-12-12T02:21:59.076Z,0
2018-12-12T02:22:58.526Z,0
2018-12-12T02:23:59.036Z,0
2018-12-12T02:24:59.036Z,0
2018-12-12T02:25:58.981Z,0
2018-12-12T02:26:59.212Z,0
2018-12-12T02:27:59.193Z,0
2018-12-12T02:28:58.919Z,0
2018-12-12T02:29:58.383Z,0
2018-12-12T02:30:58.878Z,0
2018-12-12T02:31:58.629Z,0
2018-12-12T02:32:58.862Z,0
2018-12-12T02:33:58.833Z,0
2018-12-12T02:34:58.792Z,0
2018-12-12T02:35:58.881Z,0
2018-12-12T02:36:58.492Z,0
2018-12-12T02:37:59.005Z,0
2018-12-12T02:38:59.011Z,0
2018-12-12T02:39:58.683Z,0
2018-12-12T02:40:58.921Z,0
2018-12-12T02:41:58.637Z,0
2018-12-12T02:42:58.354Z,0
2018-12-12T02:43:58.864Z,0
2018-12-12T02:44:58.578Z,0
2018-12-12T02:45:58.300Z,0
2018-12-12T02:46:58.525Z,0
2018-12-12T02:47:58.766Z,0
2018-12-12T02:48:58.248Z,0
2018-12-12T02:49:58.254Z,0
2018-12-12T02:50:57.990Z,0
2018-12-12T02:51:58.160Z,0
2018-12-12T02:52:58.164Z,0
2018-12-12T02:53:58.633Z,0
2018-12-12T02:54:57.838Z,0
2018-12-12T02:55:58.339Z,0
2018-12-12T02:56:58.319Z,0
2018-12-12T02:57:58.559Z,0
2018-12-12T02:58:58.522Z,0
2018-12-12T02:59:57.741Z,0
2018-12-12T03:00:58.001Z,0
2018-12-12T03:01:57.960Z,0
2018-12-12T03:02:58.188Z,0
2018-12-12T03:03:57.935Z,0
2018-12-12T03:04:58.411Z,0
2018-12-12T03:05:58.486Z,0
2018-12-12T03:06:58.344Z,0
2018-12-12T03:07:58.084Z,0
2018-12-12T03:08:58.060Z,0
2018-12-12T03:09:57.855Z,0
2018-12-12T03:10:57.755Z,0
2018-12-12T03:11:57.735Z,0
2018-12-12T03:12:57.998Z,0
2018-12-12T03:13:57.712Z,0
2018-12-12T03:14:57.933Z,0
2018-12-12T03:15:57.918Z,0
2018-12-12T03:16:57.379Z,0
2018-12-12T03:17:57.882Z,0
2018-12-12T03:18:58.098Z,0
2018-12-12T03:19:57.814Z,0
2018-12-12T03:20:57.030Z,0
2018-12-12T03:21:58.031Z,0
2018-12-12T03:22:57.500Z,0
2018-12-12T03:23:57.480Z,0
2018-12-12T03:24:57.697Z,0
2018-12-12T03:25:57.942Z,0
2018-12-12T03:26:57.410Z,0
2018-12-12T03:27:57.403Z,0
2018-12-12T03:28:57.369Z,0
2018-12-12T03:29:57.363Z,0
2018-12-12T03:30:57.855Z,0
2018-12-12T03:31:57.845Z,0
2018-12-12T03:32:57.338Z,0
2018-12-12T03:33:57.258Z,0
2018-12-12T03:34:57.745Z,0
2018-12-12T03:35:56.963Z,0
2018-12-12T03:36:57.659Z,0
2018-12-12T03:37:57.174Z,0
2018-12-12T03:38:57.199Z,0
2018-12-12T03:39:57.127Z,0
2018-12-12T03:40:57.626Z,0
2018-12-12T03:41:57.077Z,0
2018-12-12T03:42:57.073Z,0
2018-12-12T03:43:57.048Z,0
2018-12-12T03:44:57.021Z,0
2018-12-12T03:45:57.526Z,0
2018-12-12T03:46:57.045Z,0
2018-12-12T03:47:57.217Z,0
2018-12-12T03:48:57.202Z,0
2018-12-12T03:49:57.422Z,0
2018-12-12T03:50:57.146Z,0
2018-12-12T03:51:56.621Z,0
2018-12-12T03:52:56.596Z,0
2018-12-12T03:53:57.473Z,0
2018-12-12T03:54:56.801Z,0
2018-12-12T03:55:57.036Z,0
2018-12-12T03:56:56.763Z,0
2018-12-12T03:57:57.009Z,0
2018-12-12T03:58:56.732Z,0
2018-12-12T03:59:56.962Z,0
2018-12-12T04:00:56.949Z,0
2018-12-12T04:01:56.684Z,0
2018-12-12T04:02:56.389Z,0
2018-12-12T04:03:56.878Z,0
2018-12-12T04:04:56.617Z,0
2018-12-12T04:05:56.820Z,0
2018-12-12T04:06:57.172Z,0
2018-12-12T04:07:56.536Z,0
2018-12-12T04:08:56.759Z,0
2018-12-12T04:09:56.741Z,0
2018-12-12T04:10:56.719Z,0
2018-12-12T04:11:55.946Z,0
2018-12-12T04:12:56.192Z,0
2018-12-12T04:13:56.636Z,0
2018-12-12T04:14:56.381Z,0
2018-12-12T04:15:56.870Z,0
2018-12-12T04:16:56.586Z,0
2018-12-12T04:17:56.595Z,0
2018-12-12T04:18:56.547Z,0
2018-12-12T04:19:56.528Z,0
2018-12-12T04:20:55.987Z,0
2018-12-12T04:21:56.223Z,0
2018-12-12T04:22:56.449Z,0
2018-12-12T04:23:55.930Z,0
2018-12-12T04:24:56.469Z,0
2018-12-12T04:25:56.640Z,0
2018-12-12T04:26:56.113Z,0
2018-12-12T04:27:56.085Z,0
2018-12-12T04:28:56.068Z,0
2018-12-12T04:29:56.043Z,0
2018-12-12T04:30:56.274Z,0
2018-12-12T04:31:56.509Z,0
2018-12-12T04:32:56.005Z,0
2018-12-12T04:33:56.071Z,0
2018-12-12T04:34:56.194Z,0
2018-12-12T04:35:55.913Z,0
2018-12-12T04:36:56.160Z,0
2018-12-12T04:37:55.897Z,0
2018-12-12T04:38:56.346Z,0
2018-12-12T04:39:55.819Z,0
2018-12-12T04:40:56.054Z,0
2018-12-12T04:41:56.364Z,0
2018-12-12T04:42:56.030Z,0
2018-12-12T04:43:56.081Z,0
2018-12-12T04:44:55.986Z,0
2018-12-12T04:45:55.957Z,0
2018-12-12T04:46:55.675Z,0
2018-12-12T04:47:57.658Z,0
2018-12-12T04:48:55.879Z,0
2018-12-12T04:49:56.125Z,0
2018-12-12T04:50:56.099Z,0
2018-12-12T04:51:55.822Z,0
2018-12-12T04:52:55.541Z,0
2018-12-12T04:53:55.781Z,0
2018-12-12T04:54:55.490Z,0
2018-12-12T04:55:55.747Z,0
2018-12-12T04:56:55.445Z,0
2018-12-12T04:57:55.689Z,0
2018-12-12T04:58:55.939Z,0
2018-12-12T04:59:55.903Z,0
2018-12-12T05:00:55.173Z,0
2018-12-12T05:01:55.341Z,0
2018-12-12T05:02:55.575Z,0
2018-12-12T05:03:55.553Z,0
2018-12-12T05:04:55.276Z,0
2018-12-12T05:05:55.515Z,0
2018-12-12T05:06:55.488Z,0
2018-12-12T05:07:55.002Z,0
2018-12-12T05:08:55.693Z,0
2018-12-12T05:09:55.175Z,0
2018-12-12T05:10:55.427Z,0
2018-12-12T05:11:55.379Z,0
2018-12-12T05:12:55.201Z,0
2018-12-12T05:13:55.342Z,0
2018-12-12T05:14:55.565Z,0
2018-12-12T05:15:55.547Z,0
2018-12-12T05:16:55.519Z,0
2018-12-12T05:17:54.984Z,0
2018-12-12T05:18:55.522Z,0
2018-12-12T05:19:55.200Z,0
2018-12-12T05:20:54.932Z,0
2018-12-12T05:21:54.651Z,0
2018-12-12T05:22:55.175Z,0
2018-12-12T05:23:55.121Z,0
2018-12-12T05:24:54.835Z,0
2018-12-12T05:25:54.827Z,0
2018-12-12T05:26:55.059Z,0
2018-12-12T05:27:55.021Z,0
2018-12-12T05:28:55.003Z,0
2018-12-12T05:29:55.229Z,0
2018-12-12T05:30:54.951Z,0
2018-12-12T05:31:55.223Z,0
2018-12-12T05:32:54.670Z,0
2018-12-12T05:33:54.407Z,0
2018-12-12T05:34:54.936Z,0
2018-12-12T05:35:54.850Z,0
2018-12-12T05:36:55.309Z,0
2018-12-12T05:38:01.021Z,0
2018-12-12T05:38:54.799Z,0
2018-12-12T05:39:54.970Z,0
2018-12-12T05:40:54.993Z,0
2018-12-12T05:41:54.725Z,0
2018-12-12T05:42:54.483Z,0
2018-12-12T05:44:00.083Z,0
2018-12-12T05:44:54.421Z,0
2018-12-12T05:45:54.381Z,0
2018-12-12T05:46:54.620Z,0
2018-12-12T05:47:54.338Z,0
2018-12-12T05:48:54.311Z,0
2018-12-12T05:49:54.299Z,0
2018-12-12T05:50:54.273Z,0
2018-12-12T05:51:54.244Z,0
2018-12-12T05:52:54.738Z,0
2018-12-12T05:53:54.456Z,0
2018-12-12T05:54:54.437Z,0
2018-12-12T05:55:53.910Z,0
2018-12-12T05:56:59.328Z,0
2018-12-12T05:57:53.863Z,0
2018-12-12T05:58:54.603Z,0
2018-12-12T05:59:54.128Z,0
2018-12-12T06:00:54.456Z,0
2018-12-12T06:01:54.032Z,0
2018-12-12T06:02:53.753Z,0
2018-12-12T06:03:54.000Z,0
2018-12-12T06:04:53.459Z,0
2018-12-12T06:05:54.455Z,0
2018-12-12T06:06:54.431Z,0
2018-12-12T06:07:53.650Z,0
2018-12-12T06:08:53.883Z,0
2018-12-12T06:09:54.469Z,0
2018-12-12T06:10:54.337Z,0
2018-12-12T06:11:54.330Z,0
2018-12-12T06:12:54.047Z,0
2018-12-12T06:13:53.785Z,0
2018-12-12T06:14:54.260Z,0
2018-12-12T06:15:53.474Z,0
2018-12-12T06:16:53.716Z,0
2018-12-12T06:17:53.686Z,0
2018-12-12T06:18:53.925Z,0
2018-12-12T06:19:53.647Z,0
2018-12-12T06:20:53.870Z,0
2018-12-12T06:21:54.109Z,0
2018-12-12T06:22:53.341Z,0
2018-12-12T06:23:53.302Z,0
2018-12-12T06:24:53.791Z,0
2018-12-12T06:25:53.767Z,0
2018-12-12T06:26:53.484Z,0
2018-12-12T06:27:53.468Z,0
2018-12-12T06:28:53.699Z,0
2018-12-12T06:29:53.180Z,0
2018-12-12T06:30:53.152Z,0
2018-12-12T06:31:53.888Z,0
2018-12-12T06:32:53.884Z,0
2018-12-12T06:33:53.343Z,0
2018-12-12T06:34:53.335Z,0
2018-12-12T06:35:53.294Z,0
2018-12-12T06:36:53.536Z,0
2018-12-12T06:37:53.767Z,0
2018-12-12T06:38:53.485Z,0
2018-12-12T06:39:53.728Z,0
2018-12-12T06:40:53.190Z,0
2018-12-12T06:41:53.173Z,0
2018-12-12T06:42:53.399Z,0
2018-12-12T06:43:53.465Z,0
2018-12-12T06:44:53.357Z,0
2018-12-12T06:45:52.827Z,0
2018-12-12T06:46:53.317Z,0
2018-12-12T06:47:53.553Z,0
2018-12-12T06:48:53.262Z,0
2018-12-12T06:49:53.503Z,0
2018-12-12T06:50:53.472Z,0
2018-12-12T06:51:53.204Z,0
2018-12-12T06:52:52.916Z,0
2018-12-12T06:53:53.158Z,0
2018-12-12T06:54:52.887Z,0
2018-12-12T06:55:53.126Z,0
2018-12-12T06:56:52.585Z,0
2018-12-12T06:57:53.074Z,0
2018-12-12T06:58:53.301Z,0
2018-12-12T06:59:53.051Z,0
2018-12-12T07:00:52.755Z,0
2018-12-12T07:01:52.746Z,0
2018-12-12T07:02:52.721Z,0
2018-12-12T07:03:52.180Z,0
2018-12-12T07:04:52.666Z,0
2018-12-12T07:05:52.644Z,0
2018-12-12T07:06:52.628Z,0
2018-12-12T07:07:53.124Z,0
2018-12-12T07:08:52.828Z,0
2018-12-12T07:09:52.805Z,0
2018-12-12T07:10:52.802Z,0
2018-12-12T07:11:53.022Z,0
2018-12-12T07:12:53.015Z,0
2018-12-12T07:13:52.464Z,0
2018-12-12T07:14:52.468Z,0
2018-12-12T07:15:52.684Z,0
2018-12-12T07:16:52.407Z,0
2018-12-12T07:17:52.644Z,0
2018-12-12T07:18:52.106Z,0
2018-12-12T07:19:52.590Z,0
2018-12-12T07:20:52.827Z,0
2018-12-12T07:21:52.293Z,0
2018-12-12T07:22:53.581Z,0
2018-12-12T07:23:52.767Z,0
2018-12-12T07:24:52.486Z,0
2018-12-12T07:25:52.858Z,0
2018-12-12T07:26:52.433Z,0
2018-12-12T07:27:52.181Z,0
2018-12-12T07:28:51.895Z,0
2018-12-12T07:29:52.127Z,0
2018-12-12T07:30:52.093Z,0
2018-12-12T07:31:51.834Z,0
2018-12-12T07:32:52.319Z,0
2018-12-12T07:33:52.289Z,0
2018-12-12T07:34:52.570Z,0
2018-12-12T07:35:52.500Z,0
2018-12-12T07:36:52.678Z,0
2018-12-12T07:37:51.970Z,0
2018-12-12T07:38:52.187Z,5
2018-12-12T07:39:52.159Z,5
2018-12-12T07:40:51.891Z,5
2018-12-12T07:41:52.124Z,5
2018-12-12T07:42:51.848Z,5
2018-12-12T07:43:52.334Z,5
2018-12-12T07:44:51.846Z,5
2018-12-12T07:45:51.533Z,5
2018-12-12T07:46:52.020Z,5
2018-12-12T07:47:51.983Z,5
2018-12-12T07:48:51.704Z,5
2018-12-12T07:49:51.938Z,5
2018-12-12T07:50:53.145Z,5
2018-12-12T07:51:51.654Z,5
2018-12-12T07:52:51.901Z,5
2018-12-12T07:53:51.683Z,5
2018-12-12T07:54:51.600Z,5
2018-12-12T07:55:52.081Z,10
2018-12-12T07:56:51.794Z,10
2018-12-12T07:57:52.025Z,10
2018-12-12T07:58:52.000Z,10
2018-12-12T07:59:51.746Z,10
2018-12-12T08:00:51.954Z,10
2018-12-12T08:01:51.707Z,10
2018-12-12T08:02:51.161Z,10
2018-12-12T08:03:51.905Z,10
2018-12-12T08:04:51.621Z,10
2018-12-12T08:05:51.610Z,15
2018-12-12T08:06:51.583Z,15
2018-12-12T08:07:51.553Z,15
2018-12-12T08:08:51.533Z,15
2018-12-12T08:09:51.254Z,15
2018-12-12T08:10:51.272Z,15
2018-12-12T08:11:51.222Z,15
2018-12-12T08:12:51.439Z,15
2018-12-12T08:13:51.681Z,15
2018-12-12T08:14:51.155Z,15
2018-12-12T08:15:51.385Z,20
2018-12-12T08:16:51.113Z,20
2018-12-12T08:17:51.591Z,20
2018-12-12T08:18:51.320Z,20
2018-12-12T08:19:51.059Z,20
2018-12-12T08:20:51.290Z,20
2018-12-12T08:21:51.005Z,20
2018-12-12T08:22:51.484Z,20
2018-12-12T08:23:50.953Z,20
2018-12-12T08:24:50.682Z,20
2018-12-12T08:25:51.216Z,20
2018-12-12T08:26:51.412Z,20
2018-12-12T08:27:50.624Z,20
2018-12-12T08:28:50.843Z,20
2018-12-12T08:29:50.827Z,20
2018-12-12T08:30:51.055Z,20
2018-12-12T08:31:50.789Z,20
2018-12-12T08:32:50.756Z,20
2018-12-12T08:33:50.739Z,25
2018-12-12T08:34:50.746Z,25
2018-12-12T08:35:50.959Z,25
2018-12-12T08:36:50.927Z,25
2018-12-12T08:37:50.920Z,25
2018-12-12T08:38:50.378Z,25
2018-12-12T08:39:50.865Z,25
2018-12-12T08:40:50.343Z,25
2018-12-12T08:41:50.312Z,30
2018-12-12T08:42:50.966Z,30
2018-12-12T08:43:50.516Z,30
2018-12-12T08:44:50.765Z,30
2018-12-12T08:45:50.536Z,35
2018-12-12T08:46:50.707Z,35
2018-12-12T08:47:50.193Z,40
2018-12-12T08:48:50.671Z,40
2018-12-12T08:49:50.717Z,45
2018-12-12T08:50:50.373Z,45
2018-12-12T08:51:50.356Z,45
2018-12-12T08:52:50.587Z,45
2018-12-12T08:53:50.302Z,45
2018-12-12T08:54:50.286Z,45
2018-12-12T08:55:50.267Z,45
2018-12-12T08:56:50.513Z,45
2018-12-12T08:57:50.494Z,45
2018-12-12T08:58:50.719Z,45
2018-12-12T08:59:49.930Z,45
2018-12-12T09:00:50.420Z,45
2018-12-12T09:01:50.141Z,50
2018-12-12T09:02:50.113Z,50
2018-12-12T09:03:50.105Z,50
2018-12-12T09:04:50.338Z,50
2018-12-12T09:05:50.089Z,50
2018-12-12T09:06:49.782Z,55
2018-12-12T09:07:50.005Z,55
2018-12-12T09:08:50.262Z,55
2018-12-12T09:09:49.968Z,55
2018-12-12T09:10:49.945Z,55
2018-12-12T09:11:50.200Z,60
2018-12-12T09:12:49.995Z,60
2018-12-12T09:13:49.894Z,60
2018-12-12T09:14:50.163Z,60
2018-12-12T09:15:49.933Z,60
2018-12-12T09:16:50.086Z,60
2018-12-12T09:17:49.856Z,60
2018-12-12T09:18:50.294Z,60
2018-12-12T09:19:50.022Z,60
2018-12-12T09:20:50.021Z,60
2018-12-12T09:21:49.719Z,60
2018-12-12T09:22:49.696Z,60
2018-12-12T09:23:49.933Z,60
2018-12-12T09:24:50.168Z,65
2018-12-12T09:25:49.650Z,65
2018-12-12T09:26:50.817Z,60
2018-12-12T09:27:51.175Z,60
2018-12-12T09:28:49.905Z,60
2018-12-12T09:29:49.804Z,60
2018-12-12T09:30:49.809Z,65
2018-12-12T09:31:49.763Z,65
2018-12-12T09:32:49.228Z,65
2018-12-12T09:33:49.477Z,65
2018-12-12T09:34:49.954Z,65
2018-12-12T09:35:49.956Z,65
2018-12-12T09:36:49.805Z,60
2018-12-12T09:37:49.637Z,60
2018-12-12T09:38:49.368Z,60
2018-12-12T09:39:49.597Z,60
2018-12-12T09:40:49.573Z,60
2018-12-12T09:41:49.301Z,65
2018-12-12T09:42:49.543Z,65
2018-12-12T09:43:49.671Z,65
2018-12-12T09:44:49.497Z,70
2018-12-12T09:45:49.474Z,70
2018-12-12T09:46:49.720Z,65
2018-12-12T09:47:49.444Z,65
2018-12-12T09:48:51.066Z,65
2018-12-12T09:49:49.398Z,60
2018-12-12T09:50:48.867Z,65
2018-12-12T09:51:49.374Z,65
2018-12-12T09:52:48.823Z,70
2018-12-12T09:53:49.364Z,70
2018-12-12T09:54:49.302Z,75
2018-12-12T09:55:49.805Z,75
2018-12-12T09:56:49.093Z,75
2018-12-12T09:57:49.304Z,75
2018-12-12T09:58:48.966Z,75
2018-12-12T09:59:49.094Z,70
2018-12-12T10:00:49.220Z,70
2018-12-12T10:01:49.510Z,70
2018-12-12T10:02:48.882Z,70
2018-12-12T10:03:48.902Z,70
2018-12-12T10:04:49.098Z,70
2018-12-12T10:05:48.870Z,70
2018-12-12T10:06:48.865Z,70
2018-12-12T10:07:48.770Z,70
2018-12-12T10:08:49.018Z,70
2018-12-12T10:09:48.729Z,65
2018-12-12T10:10:48.715Z,65
2018-12-12T10:11:49.206Z,65
2018-12-12T10:12:48.935Z,65
2018-12-12T10:13:48.394Z,70
2018-12-12T10:14:48.880Z,75
2018-12-12T10:15:48.861Z,75
2018-12-12T10:16:48.841Z,75
2018-12-12T10:17:48.564Z,75
2018-12-12T10:18:49.098Z,80
2018-12-12T10:19:48.823Z,80
2018-12-12T10:20:48.871Z,80
2018-12-12T10:21:48.823Z,80
2018-12-12T10:22:48.987Z,80
2018-12-12T10:23:48.822Z,80
2018-12-12T10:24:48.883Z,80
2018-12-12T10:25:48.527Z,80
2018-12-12T10:26:48.652Z,80
2018-12-12T10:27:48.923Z,80
2018-12-12T10:28:48.885Z,80
2018-12-12T10:29:48.833Z,85
2018-12-12T10:30:48.302Z,90
2018-12-12T10:31:48.549Z,95
2018-12-12T10:32:48.264Z,95
2018-12-12T10:33:48.768Z,95
2018-12-12T10:34:47.724Z,95
2018-12-12T10:35:48.206Z,95
2018-12-12T10:36:48.685Z,95
2018-12-12T10:37:48.414Z,95
2018-12-12T10:38:48.403Z,95
2018-12-12T10:39:48.388Z,95
2018-12-12T10:40:48.350Z,95
2018-12-12T10:41:48.355Z,95
2018-12-12T10:42:48.579Z,95
2018-12-12T10:43:48.105Z,95
2018-12-12T10:44:47.943Z,95
2018-12-12T10:45:48.020Z,95
2018-12-12T10:46:48.249Z,85
2018-12-12T10:47:47.712Z,80
2018-12-12T10:48:48.444Z,75
2018-12-12T10:49:47.669Z,80
2018-12-12T10:50:48.250Z,80
2018-12-12T10:51:48.825Z,80
2018-12-12T10:52:47.856Z,80
2018-12-12T10:53:47.592Z,75
2018-12-12T10:54:47.567Z,75
2018-12-12T10:55:48.055Z,80
2018-12-12T10:56:48.039Z,80
2018-12-12T10:57:47.766Z,85
2018-12-12T10:58:48.270Z,90
2018-12-12T10:59:48.274Z,90
2018-12-12T11:00:47.951Z,90
2018-12-12T11:01:48.213Z,90
2018-12-12T11:02:47.723Z,90
2018-12-12T11:03:53.511Z,95
2018-12-12T11:04:47.738Z,95
2018-12-12T11:05:47.602Z,100
2018-12-12T11:06:48.090Z,100
2018-12-12T11:07:47.935Z,100
2018-12-12T11:08:48.110Z,95
2018-12-12T11:09:48.096Z,95
2018-12-12T11:10:47.959Z,95
2018-12-12T11:11:48.170Z,95
2018-12-12T11:12:48.072Z,95
2018-12-12T11:13:47.788Z,95
2018-12-12T11:14:47.702Z,95
2018-12-12T11:15:47.662Z,90
2018-12-12T11:16:47.126Z,90
2018-12-12T11:17:47.610Z,95
2018-12-12T11:18:47.592Z,95
2018-12-12T11:19:47.589Z,95
2018-12-12T11:20:47.837Z,95
2018-12-12T11:21:47.104Z,95
2018-12-12T11:22:47.268Z,95
2018-12-12T11:23:46.994Z,100
2018-12-12T11:24:47.413Z,100
2018-12-12T11:25:47.704Z,100
2018-12-12T11:26:47.187Z,100
2018-12-12T11:27:47.263Z,105
2018-12-12T11:28:47.112Z,105
2018-12-12T11:29:47.436Z,110
2018-12-12T11:30:47.371Z,110
2018-12-12T11:31:47.192Z,120
2018-12-12T11:32:46.884Z,120
2018-12-12T11:33:53.015Z,120
2018-12-12T11:34:47.165Z,120
2018-12-12T11:35:47.636Z,120
2018-12-12T11:36:47.788Z,125
2018-12-12T11:37:47.250Z,125
2018-12-12T11:38:47.211Z,125
2018-12-12T11:39:46.977Z,120
2018-12-12T11:40:47.175Z,120
2018-12-12T11:41:47.144Z,120
2018-12-12T11:42:46.917Z,120
2018-12-12T11:43:46.841Z,115
2018-12-12T11:44:47.084Z,115
2018-12-12T11:45:47.068Z,110
2018-12-12T11:46:46.533Z,110
2018-12-12T11:47:46.525Z,110
2018-12-12T11:48:46.999Z,105
2018-12-12T11:49:46.998Z,105
2018-12-12T11:50:46.711Z,105
2018-12-12T11:51:47.027Z,105
2018-12-12T11:52:46.938Z,105
2018-12-12T11:53:47.155Z,105
2018-12-12T11:54:47.138Z,105
2018-12-12T11:55:46.369Z,105
2018-12-12T11:56:46.866Z,105
2018-12-12T11:57:46.831Z,105
2018-12-12T11:58:46.811Z,110
2018-12-12T11:59:46.555Z,110
2018-12-12T12:00:46.509Z,110
2018-12-12T12:01:46.756Z,105
2018-12-12T12:02:46.744Z,100
2018-12-12T12:03:46.727Z,100
2018-12-12T12:04:46.445Z,100
2018-12-12T12:05:46.433Z,105
2018-12-12T12:06:46.653Z,110
2018-12-12T12:07:46.374Z,110
2018-12-12T12:08:46.888Z,115
2018-12-12T12:09:46.862Z,115
2018-12-12T12:10:46.321Z,120
2018-12-12T12:11:46.584Z,125
2018-12-12T12:12:46.559Z,125
2018-12-12T12:13:46.017Z,125
2018-12-12T12:14:46.232Z,120
2018-12-12T12:15:46.490Z,115
2018-12-12T12:16:45.960Z,115
2018-12-12T12:17:46.434Z,120
2018-12-12T12:18:46.217Z,125
2018-12-12T12:19:46.664Z,125
2018-12-12T12:20:45.880Z,120
2018-12-12T12:21:46.361Z,115
2018-12-12T12:22:46.342Z,110
2018-12-12T12:23:46.315Z,105
2018-12-12T12:24:46.042Z,95
2018-12-12T12:25:46.279Z,95
2018-12-12T12:26:46.016Z,90
2018-12-12T12:27:45.996Z,95
2018-12-12T12:28:46.246Z,95
2018-12-12T12:29:46.576Z,95
2018-12-12T12:30:46.470Z,105
2018-12-12T12:31:46.096Z,100
2018-12-12T12:32:46.146Z,90
2018-12-12T12:33:45.890Z,80
2018-12-12T12:34:45.863Z,70
2018-12-12T12:35:46.355Z,70
2018-12-12T12:36:45.939Z,70
2018-12-12T12:37:45.800Z,70
2018-12-12T12:38:46.028Z,75
2018-12-12T12:39:46.005Z,85
2018-12-12T12:40:46.327Z,70
2018-12-12T12:41:45.982Z,65
2018-12-12T12:42:46.650Z,70
2018-12-12T12:43:45.685Z,80
2018-12-12T12:44:45.402Z,75
2018-12-12T12:45:45.751Z,75
2018-12-12T12:46:45.893Z,65
2018-12-12T12:47:45.857Z,65
2018-12-12T12:48:46.146Z,60
2018-12-12T12:49:45.810Z,55
2018-12-12T12:50:46.664Z,50
2018-12-12T12:51:45.521Z,50
2018-12-12T12:52:45.301Z,50
2018-12-12T12:53:46.039Z,45
2018-12-12T12:54:45.743Z,45
2018-12-12T12:55:45.694Z,40
2018-12-12T12:56:45.978Z,40
2018-12-12T12:57:45.418Z,40
2018-12-12T12:58:46.066Z,40
2018-12-12T12:59:45.615Z,45
2018-12-12T13:00:45.600Z,50
2018-12-12T13:01:45.314Z,45
2018-12-12T13:02:45.553Z,40
2018-12-12T13:03:45.793Z,40
2018-12-12T13:04:45.249Z,40
2018-12-12T13:05:45.742Z,45
2018-12-12T13:06:45.462Z,50
2018-12-12T13:07:45.705Z,45
2018-12-12T13:08:45.432Z,40
2018-12-12T13:09:46.140Z,35
2018-12-12T13:10:45.390Z,45
2018-12-12T13:11:45.127Z,50
2018-12-12T13:12:45.119Z,50
2018-12-12T13:13:45.102Z,50
2018-12-12T13:14:45.054Z,40
2018-12-12T13:15:44.780Z,35
2018-12-12T13:16:45.012Z,35
2018-12-12T13:17:45.012Z,35
2018-12-12T13:18:44.727Z,40
2018-12-12T13:19:44.965Z,50
2018-12-12T13:20:45.177Z,55
2018-12-12T13:21:45.822Z,55
2018-12-12T13:22:44.928Z,55
2018-12-12T13:23:44.632Z,55
2018-12-12T13:24:44.902Z,55
2018-12-12T13:25:45.093Z,55
2018-12-12T13:26:45.547Z,55
2018-12-12T13:27:44.784Z,60
2018-12-12T13:28:45.296Z,70
2018-12-12T13:29:45.005Z,75
2018-12-12T13:30:44.993Z,75
2018-12-12T13:31:44.483Z,75
2018-12-12T13:32:45.212Z,80
2018-12-12T13:33:44.679Z,85
2018-12-12T13:34:44.729Z,90
2018-12-12T13:35:44.886Z,85
2018-12-12T13:36:44.867Z,80
2018-12-12T13:37:44.782Z,80
2018-12-12T13:38:44.570Z,80
2018-12-12T13:39:44.292Z,80
2018-12-12T13:40:44.786Z,80
2018-12-12T13:41:45.078Z,65
2018-12-12T13:42:44.736Z,65
2018-12-12T13:43:45.250Z,65
2018-12-12T13:44:44.457Z,70
2018-12-12T13:45:44.430Z,65
2018-12-12T13:46:44.921Z,65
2018-12-12T13:47:44.393Z,65
2018-12-12T13:48:44.620Z,65
2018-12-12T13:49:44.853Z,75
2018-12-12T13:50:44.586Z,70
2018-12-12T13:51:44.569Z,70
2018-12-12T13:52:44.041Z,70
2018-12-12T13:53:44.524Z,70
2018-12-12T13:54:44.747Z,70
2018-12-12T13:55:44.475Z,65
2018-12-12T13:56:43.952Z,65
2018-12-12T13:57:44.441Z,65
2018-12-12T13:58:44.420Z,65
2018-12-12T13:59:44.155Z,65
2018-12-12T14:00:48.728Z,65
2018-12-12T14:01:44.401Z,60
2018-12-12T14:02:44.092Z,60
2018-12-12T14:03:44.316Z,60
2018-12-12T14:04:44.574Z,60
2018-12-12T14:05:44.268Z,60
2018-12-12T14:06:43.993Z,60
2018-12-12T14:07:44.237Z,55
2018-12-12T14:08:43.960Z,55
2018-12-12T14:09:43.960Z,55
2018-12-12T14:10:43.929Z,55
2018-12-12T14:11:44.245Z,55
2018-12-12T14:12:44.183Z,55
2018-12-12T14:13:44.122Z,55
2018-12-12T14:14:44.086Z,55
2018-12-12T14:15:44.085Z,50
2018-12-12T14:16:44.051Z,50
2018-12-12T14:17:43.768Z,50
2018-12-12T14:18:43.767Z,50
2018-12-12T14:19:43.215Z,45
2018-12-12T14:20:43.457Z,45
2018-12-12T14:21:43.941Z,45
2018-12-12T14:22:44.069Z,45
2018-12-12T14:23:43.405Z,45
2018-12-12T14:24:43.370Z,45
2018-12-12T14:25:44.137Z,45
2018-12-12T14:26:43.582Z,45
2018-12-12T14:27:48.316Z,40
2018-12-12T14:28:44.077Z,45
2018-12-12T14:29:43.820Z,45